N1979 PAJN-PAPG
Flight info
| Callsign | N1979 |
|---|---|
| Flight time | 0h 43m |
| Altitude | 21000 |
| Route | JNU7 SSR UNEKY |
| Aircraft | PC12/L-SDFGRWY/S |
Departure
| Time | 2026-05-05 01:32 |
|---|---|
| Airport | Juneau International Airport (PAJN) |
Arrival
| Time | 2026-05-05 02:16 |
|---|---|
| Airport | Petersburg James A Johnson Airport (PAPG) |
| Time | Latitude | Longitude | Altitude | Speed | Heading |
|---|---|---|---|---|---|
| 2026-05-05 01:10 | 58.35905 | -134.58951 | 30 ft | 0 kts | 108° |
| 2026-05-05 01:27 | 58.35901 | -134.58938 | 30 ft | 6 kts | 130° |
| 2026-05-05 01:28 | 58.35853 | -134.58999 | 30 ft | 13 kts | 249° |
| 2026-05-05 01:28 | 58.35795 | -134.58973 | 30 ft | 14 kts | 107° |
| 2026-05-05 01:28 | 58.35761 | -134.58725 | 30 ft | 24 kts | 104° |
| 2026-05-05 01:28 | 58.35712 | -134.58373 | 29 ft | 29 kts | 105° |
| 2026-05-05 01:29 | 58.35659 | -134.57991 | 30 ft | 27 kts | 105° |
| 2026-05-05 01:29 | 58.35607 | -134.57617 | 30 ft | 32 kts | 103° |
| 2026-05-05 01:29 | 58.35554 | -134.57246 | 29 ft | 27 kts | 104° |
| 2026-05-05 01:29 | 58.35509 | -134.56911 | 29 ft | 25 kts | 105° |
| 2026-05-05 01:30 | 58.35464 | -134.56593 | 29 ft | 26 kts | 106° |
| 2026-05-05 01:30 | 58.35417 | -134.56248 | 29 ft | 29 kts | 104° |
| 2026-05-05 01:30 | 58.35364 | -134.55875 | 28 ft | 30 kts | 104° |
| 2026-05-05 01:30 | 58.35307 | -134.55565 | 28 ft | 15 kts | 140° |
| 2026-05-05 01:31 | 58.35217 | -134.55594 | 27 ft | 13 kts | 241° |
| 2026-05-05 01:31 | 58.35215 | -134.55626 | 26 ft | 0 kts | 287° |
| 2026-05-05 01:31 | 58.35217 | -134.55634 | 26 ft | 5 kts | 285° |
| 2026-05-05 01:32 | 58.35266 | -134.55991 | 27 ft | 56 kts | 285° |
| 2026-05-05 01:32 | 58.35408 | -134.57027 | 43 ft | 101 kts | 280° |
| 2026-05-05 01:32 | 58.35624 | -134.58419 | 307 ft | 123 kts | 286° |
| 2026-05-05 01:32 | 58.35882 | -134.60097 | 664 ft | 146 kts | 282° |
| 2026-05-05 01:33 | 58.35817 | -134.62145 | 1059 ft | 166 kts | 258° |
| 2026-05-05 01:33 | 58.35737 | -134.64477 | 1486 ft | 181 kts | 272° |
| 2026-05-05 01:33 | 58.35827 | -134.66791 | 1888 ft | 187 kts | 273° |
| 2026-05-05 01:33 | 58.35913 | -134.69288 | 2363 ft | 191 kts | 272° |
| 2026-05-05 01:34 | 58.35933 | -134.71836 | 2877 ft | 195 kts | 270° |
| 2026-05-05 01:34 | 58.35953 | -134.74458 | 3354 ft | 201 kts | 271° |
| 2026-05-05 01:34 | 58.35977 | -134.77145 | 3807 ft | 205 kts | 270° |
| 2026-05-05 01:34 | 58.35994 | -134.79883 | 4265 ft | 208 kts | 270° |
| 2026-05-05 01:35 | 58.36010 | -134.82644 | 4731 ft | 209 kts | 269° |
| 2026-05-05 01:35 | 58.36025 | -134.85425 | 5180 ft | 210 kts | 269° |
| 2026-05-05 01:35 | 58.35850 | -134.88014 | 6089 ft | 185 kts | 252° |
| 2026-05-05 01:35 | 58.35355 | -134.90078 | 7118 ft | 159 kts | 237° |
| 2026-05-05 01:36 | 58.34704 | -134.91623 | 7972 ft | 147 kts | 225° |
| 2026-05-05 01:36 | 58.33995 | -134.93062 | 8611 ft | 150 kts | 226° |
| 2026-05-05 01:36 | 58.33293 | -134.94509 | 9325 ft | 148 kts | 226° |
| 2026-05-05 01:36 | 58.32583 | -134.95954 | 9979 ft | 150 kts | 225° |
| 2026-05-05 01:37 | 58.31869 | -134.97397 | 10583 ft | 150 kts | 225° |
| 2026-05-05 01:37 | 58.31158 | -134.98842 | 11205 ft | 150 kts | 225° |
| 2026-05-05 01:37 | 58.30444 | -135.00292 | 11812 ft | 150 kts | 225° |
| 2026-05-05 01:37 | 58.29972 | -135.01251 | 12230 ft | 150 kts | 225° |
| 2026-05-05 01:38 | 58.29256 | -135.02703 | 12854 ft | 151 kts | 225° |
| 2026-05-05 01:38 | 58.28547 | -135.04138 | 13478 ft | 151 kts | 224° |
| 2026-05-05 01:38 | 58.27827 | -135.05596 | 14086 ft | 152 kts | 224° |
| 2026-05-05 01:38 | 58.27105 | -135.07059 | 14626 ft | 152 kts | 224° |
| 2026-05-05 01:39 | 58.26382 | -135.08521 | 15168 ft | 152 kts | 224° |
| 2026-05-05 01:39 | 58.25659 | -135.09980 | 15719 ft | 152 kts | 225° |
| 2026-05-05 01:39 | 58.24938 | -135.11438 | 16287 ft | 151 kts | 225° |
| 2026-05-05 01:39 | 58.24216 | -135.12894 | 16838 ft | 152 kts | 225° |
| 2026-05-05 01:40 | 58.23494 | -135.14351 | 17417 ft | 152 kts | 225° |
| 2026-05-05 01:40 | 58.22770 | -135.15809 | 17985 ft | 152 kts | 225° |
| 2026-05-05 01:40 | 58.22046 | -135.17267 | 18536 ft | 151 kts | 225° |
| 2026-05-05 01:40 | 58.21320 | -135.18729 | 19012 ft | 153 kts | 225° |
| 2026-05-05 01:41 | 58.20532 | -135.20081 | 19486 ft | 154 kts | 215° |
| 2026-05-05 01:41 | 58.19584 | -135.21042 | 19964 ft | 156 kts | 204° |
| 2026-05-05 01:41 | 58.18518 | -135.21565 | 20440 ft | 161 kts | 193° |
| 2026-05-05 01:41 | 58.17378 | -135.21584 | 20869 ft | 170 kts | 181° |
| 2026-05-05 01:42 | 58.16149 | -135.20992 | 20994 ft | 199 kts | 166° |
| 2026-05-05 01:42 | 58.14879 | -135.19489 | 21001 ft | 233 kts | 147° |
| 2026-05-05 01:42 | 58.13733 | -135.17094 | 21001 ft | 255 kts | 138° |
| 2026-05-05 01:42 | 58.12557 | -135.14470 | 20995 ft | 267 kts | 138° |
| 2026-05-05 01:43 | 58.11324 | -135.11761 | 20991 ft | 275 kts | 138° |
| 2026-05-05 01:43 | 58.10059 | -135.09001 | 20987 ft | 280 kts | 138° |
| 2026-05-05 01:43 | 58.08776 | -135.06201 | 20991 ft | 283 kts | 138° |
| 2026-05-05 01:43 | 58.07484 | -135.03381 | 20988 ft | 285 kts | 138° |
| 2026-05-05 01:44 | 58.06198 | -135.00581 | 20988 ft | 286 kts | 138° |
| 2026-05-05 01:44 | 58.04892 | -134.97739 | 20984 ft | 287 kts | 138° |
| 2026-05-05 01:44 | 58.03581 | -134.94893 | 20984 ft | 288 kts | 138° |
| 2026-05-05 01:44 | 58.02265 | -134.92041 | 20979 ft | 288 kts | 138° |
| 2026-05-05 01:45 | 58.00951 | -134.89190 | 20978 ft | 288 kts | 138° |
| 2026-05-05 01:45 | 57.99631 | -134.86333 | 20971 ft | 288 kts | 138° |
| 2026-05-05 01:45 | 57.98315 | -134.83489 | 20968 ft | 288 kts | 138° |
| 2026-05-05 01:45 | 57.96995 | -134.80641 | 20968 ft | 289 kts | 138° |
| 2026-05-05 01:46 | 57.95676 | -134.77796 | 20961 ft | 289 kts | 138° |
| 2026-05-05 01:46 | 57.94353 | -134.74947 | 20960 ft | 289 kts | 138° |
| 2026-05-05 01:46 | 57.93030 | -134.72103 | 20958 ft | 289 kts | 138° |
| 2026-05-05 01:46 | 57.91705 | -134.69257 | 20957 ft | 289 kts | 138° |
| 2026-05-05 01:47 | 57.90379 | -134.66413 | 20950 ft | 289 kts | 138° |
| 2026-05-05 01:47 | 57.89057 | -134.63577 | 20958 ft | 288 kts | 138° |
| 2026-05-05 01:47 | 57.87732 | -134.60740 | 20951 ft | 289 kts | 138° |
| 2026-05-05 01:47 | 57.86403 | -134.57901 | 20952 ft | 290 kts | 138° |
| 2026-05-05 01:48 | 57.85072 | -134.55060 | 20955 ft | 290 kts | 138° |
| 2026-05-05 01:48 | 57.83743 | -134.52225 | 20960 ft | 290 kts | 138° |
| 2026-05-05 01:48 | 57.82407 | -134.49378 | 20953 ft | 290 kts | 139° |
| 2026-05-05 01:48 | 57.81072 | -134.46538 | 20952 ft | 289 kts | 139° |
| 2026-05-05 01:49 | 57.79755 | -134.43734 | 21053 ft | 286 kts | 139° |
| 2026-05-05 01:49 | 57.78431 | -134.40930 | 21050 ft | 287 kts | 139° |
| 2026-05-05 01:49 | 57.77108 | -134.38128 | 21049 ft | 288 kts | 139° |
| 2026-05-05 01:49 | 57.75931 | -134.35634 | 21056 ft | 288 kts | 139° |
| 2026-05-05 01:50 | 57.74601 | -134.32822 | 21055 ft | 289 kts | 138° |
| 2026-05-05 01:50 | 57.73268 | -134.30005 | 21055 ft | 289 kts | 139° |
| 2026-05-05 01:50 | 57.71932 | -134.27186 | 21058 ft | 290 kts | 138° |
| 2026-05-05 01:50 | 57.70591 | -134.24360 | 21061 ft | 290 kts | 138° |
| 2026-05-05 01:51 | 57.69252 | -134.21542 | 21058 ft | 290 kts | 139° |
| 2026-05-05 01:51 | 57.67927 | -134.18757 | 21062 ft | 291 kts | 139° |
| 2026-05-05 01:51 | 57.66566 | -134.15899 | 21060 ft | 291 kts | 139° |
| 2026-05-05 01:51 | 57.65238 | -134.13115 | 21058 ft | 290 kts | 138° |
| 2026-05-05 01:52 | 57.63896 | -134.10301 | 21062 ft | 290 kts | 139° |
| 2026-05-05 01:52 | 57.62552 | -134.07492 | 21065 ft | 290 kts | 139° |
| 2026-05-05 01:52 | 57.61207 | -134.04683 | 21067 ft | 291 kts | 139° |
| 2026-05-05 01:52 | 57.59863 | -134.01875 | 21063 ft | 290 kts | 139° |
| 2026-05-05 01:53 | 57.58513 | -133.99062 | 21060 ft | 291 kts | 139° |
| 2026-05-05 01:53 | 57.57162 | -133.96250 | 21061 ft | 291 kts | 139° |
| 2026-05-05 01:53 | 57.55811 | -133.93439 | 21057 ft | 291 kts | 139° |
| 2026-05-05 01:53 | 57.54462 | -133.90635 | 21059 ft | 291 kts | 139° |
| 2026-05-05 01:54 | 57.53112 | -133.87836 | 21058 ft | 291 kts | 139° |
| 2026-05-05 01:54 | 57.51759 | -133.85034 | 21063 ft | 291 kts | 139° |
| 2026-05-05 01:54 | 57.50407 | -133.82235 | 21059 ft | 291 kts | 139° |
| 2026-05-05 01:54 | 57.49054 | -133.79439 | 21060 ft | 291 kts | 139° |
| 2026-05-05 01:55 | 57.47699 | -133.76641 | 21065 ft | 291 kts | 139° |
| 2026-05-05 01:55 | 57.46345 | -133.73849 | 21060 ft | 291 kts | 139° |
| 2026-05-05 01:55 | 57.44988 | -133.71054 | 21063 ft | 291 kts | 139° |
| 2026-05-05 01:55 | 57.43633 | -133.68266 | 21061 ft | 291 kts | 139° |
| 2026-05-05 01:56 | 57.42274 | -133.65474 | 21062 ft | 291 kts | 139° |
| 2026-05-05 01:56 | 57.40917 | -133.62689 | 21064 ft | 291 kts | 139° |
| 2026-05-05 01:56 | 57.39558 | -133.59903 | 21066 ft | 291 kts | 139° |
| 2026-05-05 01:56 | 57.38200 | -133.57122 | 21063 ft | 291 kts | 139° |
| 2026-05-05 01:57 | 57.36837 | -133.54336 | 21065 ft | 291 kts | 139° |
| 2026-05-05 01:57 | 57.35476 | -133.51555 | 21060 ft | 291 kts | 139° |
| 2026-05-05 01:57 | 57.34141 | -133.48824 | 20221 ft | 290 kts | 139° |
| 2026-05-05 01:57 | 57.32762 | -133.46033 | 19361 ft | 294 kts | 139° |
| 2026-05-05 01:58 | 57.31392 | -133.43240 | 18579 ft | 293 kts | 138° |
| 2026-05-05 01:58 | 57.30020 | -133.40445 | 17667 ft | 294 kts | 138° |
| 2026-05-05 01:58 | 57.28644 | -133.37651 | 16728 ft | 294 kts | 137° |
| 2026-05-05 01:58 | 57.27268 | -133.34862 | 15800 ft | 294 kts | 137° |
| 2026-05-05 01:59 | 57.25902 | -133.32095 | 15013 ft | 289 kts | 136° |
| 2026-05-05 01:59 | 57.24558 | -133.29374 | 14262 ft | 285 kts | 136° |
| 2026-05-05 01:59 | 57.23230 | -133.26688 | 13441 ft | 281 kts | 135° |
| 2026-05-05 01:59 | 57.21916 | -133.24038 | 12598 ft | 278 kts | 135° |
| 2026-05-05 02:00 | 57.20634 | -133.21454 | 11829 ft | 275 kts | 135° |
| 2026-05-05 02:00 | 57.19331 | -133.18830 | 11044 ft | 272 kts | 134° |
| 2026-05-05 02:00 | 57.18064 | -133.16322 | 10262 ft | 269 kts | 137° |
| 2026-05-05 02:00 | 57.16562 | -133.14320 | 9453 ft | 265 kts | 152° |
| 2026-05-05 02:01 | 57.14937 | -133.12747 | 8642 ft | 262 kts | 153° |
| 2026-05-05 02:01 | 57.13332 | -133.11173 | 7863 ft | 260 kts | 152° |
| 2026-05-05 02:01 | 57.11746 | -133.09609 | 7073 ft | 258 kts | 152° |
| 2026-05-05 02:01 | 57.10179 | -133.08072 | 6419 ft | 248 kts | 152° |
| 2026-05-05 02:02 | 57.08661 | -133.06588 | 6047 ft | 252 kts | 152° |
| 2026-05-05 02:02 | 57.07112 | -133.05073 | 6011 ft | 251 kts | 152° |
| 2026-05-05 02:02 | 57.05574 | -133.03568 | 6005 ft | 250 kts | 152° |
| 2026-05-05 02:02 | 57.04093 | -133.02123 | 6006 ft | 250 kts | 152° |
| 2026-05-05 02:03 | 57.02559 | -133.00628 | 6006 ft | 250 kts | 152° |
| 2026-05-05 02:03 | 57.01033 | -132.99103 | 6000 ft | 249 kts | 149° |
| 2026-05-05 02:03 | 56.99538 | -132.97512 | 5995 ft | 249 kts | 150° |
| 2026-05-05 02:03 | 56.98023 | -132.95957 | 5998 ft | 249 kts | 150° |
| 2026-05-05 02:04 | 56.96511 | -132.94393 | 5994 ft | 250 kts | 150° |
| 2026-05-05 02:04 | 56.95000 | -132.92814 | 5996 ft | 249 kts | 150° |
| 2026-05-05 02:04 | 56.93494 | -132.91242 | 5991 ft | 249 kts | 150° |
| 2026-05-05 02:04 | 56.91984 | -132.89672 | 5991 ft | 249 kts | 150° |
| 2026-05-05 02:05 | 56.90476 | -132.88105 | 5989 ft | 249 kts | 150° |
| 2026-05-05 02:05 | 56.88966 | -132.86536 | 5990 ft | 249 kts | 150° |
| 2026-05-05 02:05 | 56.87459 | -132.84972 | 5989 ft | 249 kts | 150° |
| 2026-05-05 02:05 | 56.85949 | -132.83407 | 5986 ft | 249 kts | 150° |
| 2026-05-05 02:06 | 56.84443 | -132.81847 | 5987 ft | 249 kts | 150° |
| 2026-05-05 02:06 | 56.82936 | -132.80289 | 5988 ft | 249 kts | 150° |
| 2026-05-05 02:06 | 56.81428 | -132.78730 | 5989 ft | 249 kts | 150° |
| 2026-05-05 02:06 | 56.79922 | -132.77175 | 5989 ft | 249 kts | 150° |
| 2026-05-05 02:07 | 56.78417 | -132.75621 | 5987 ft | 249 kts | 150° |
| 2026-05-05 02:07 | 56.76943 | -132.74101 | 5153 ft | 247 kts | 150° |
| 2026-05-05 02:07 | 56.75464 | -132.72582 | 4728 ft | 233 kts | 150° |
| 2026-05-05 02:07 | 56.74104 | -132.71328 | 4604 ft | 207 kts | 158° |
| 2026-05-05 02:08 | 56.72797 | -132.70705 | 4550 ft | 182 kts | 170° |
| 2026-05-05 02:08 | 56.71609 | -132.70562 | 4487 ft | 162 kts | 180° |
| 2026-05-05 02:08 | 56.70495 | -132.70779 | 4152 ft | 162 kts | 189° |
| 2026-05-05 02:08 | 56.69412 | -132.71347 | 3855 ft | 162 kts | 199° |
| 2026-05-05 02:09 | 56.68400 | -132.72235 | 3607 ft | 162 kts | 208° |
| 2026-05-05 02:09 | 56.67487 | -132.73432 | 3303 ft | 162 kts | 219° |
| 2026-05-05 02:09 | 56.66733 | -132.74840 | 3200 ft | 145 kts | 229° |
| 2026-05-05 02:09 | 56.66082 | -132.76495 | 3192 ft | 169 kts | 239° |
| 2026-05-05 02:10 | 56.65600 | -132.78360 | 3192 ft | 167 kts | 248° |
| 2026-05-05 02:10 | 56.65299 | -132.80364 | 3180 ft | 163 kts | 259° |
| 2026-05-05 02:10 | 56.65189 | -132.82443 | 3174 ft | 167 kts | 269° |
| 2026-05-05 02:10 | 56.65284 | -132.84544 | 3193 ft | 167 kts | 279° |
| 2026-05-05 02:11 | 56.65581 | -132.86587 | 3188 ft | 166 kts | 290° |
| 2026-05-05 02:11 | 56.66066 | -132.88491 | 3058 ft | 164 kts | 301° |
| 2026-05-05 02:11 | 56.66726 | -132.90188 | 2864 ft | 163 kts | 312° |
| 2026-05-05 02:11 | 56.67529 | -132.91613 | 2682 ft | 161 kts | 322° |
| 2026-05-05 02:12 | 56.68445 | -132.92743 | 2492 ft | 158 kts | 332° |
| 2026-05-05 02:12 | 56.70466 | -132.94039 | 2128 ft | 153 kts | 352° |
| 2026-05-05 02:12 | 56.71517 | -132.94200 | 1964 ft | 151 kts | 0° |
| 2026-05-05 02:13 | 56.72558 | -132.94434 | 1940 ft | 157 kts | 346° |
| 2026-05-05 02:13 | 56.73549 | -132.95130 | 1883 ft | 152 kts | 333° |
| 2026-05-05 02:13 | 56.74430 | -132.96229 | 1807 ft | 155 kts | 319° |
| 2026-05-05 02:13 | 56.75174 | -132.97600 | 1779 ft | 150 kts | 315° |
| 2026-05-05 02:14 | 56.75898 | -132.98930 | 1514 ft | 149 kts | 316° |
| 2026-05-05 02:14 | 56.76766 | -133.00381 | 1182 ft | 175 kts | 330° |
| 2026-05-05 02:14 | 56.77827 | -133.00775 | 1178 ft | 141 kts | 7° |
| 2026-05-05 02:14 | 56.78621 | -133.00282 | 1170 ft | 107 kts | 32° |
| 2026-05-05 02:15 | 56.79172 | -132.99429 | 1101 ft | 101 kts | 47° |
| 2026-05-05 02:15 | 56.79459 | -132.98264 | 741 ft | 113 kts | 70° |
| 2026-05-05 02:15 | 56.79711 | -132.96918 | 355 ft | 105 kts | 70° |
| 2026-05-05 02:15 | 56.79935 | -132.95743 | 144 ft | 92 kts | 69° |
| 2026-05-05 02:16 | 56.80124 | -132.94777 | 114 ft | 70 kts | 70° |
| 2026-05-05 02:16 | 56.80249 | -132.94090 | 112 ft | 44 kts | 70° |
| 2026-05-05 02:16 | 56.80338 | -132.93646 | 110 ft | 31 kts | 73° |
| 2026-05-05 02:16 | 56.80398 | -132.93389 | 111 ft | 16 kts | 28° |
| 2026-05-05 02:17 | 56.80478 | -132.93398 | 111 ft | 10 kts | 343° |
| 2026-05-05 02:17 | 56.80512 | -132.93434 | 111 ft | 9 kts | 306° |
| 2026-05-05 02:17 | 56.80556 | -132.93494 | 112 ft | 8 kts | 59° |
| 2026-05-05 02:17 | 56.80562 | -132.93456 | 109 ft | 0 kts | 76° |